Strona główna
METAR-TAF:

METAR-TAF

Lotnisko :

Albert, Francja

Szerokość geograficzna: 49-58-21N, Długość geograficzna: 002-41-29E, wysokość: 111 m

Aktualna obserwacja pogody

Raport powstał 17 minut temu, godzina 21:30 UTC
Wiatr 5 kt od zachód
Temperatura 11°C
Wilgotność 82%
Ciśnienie 1001 hPa
Widzialność 10 km lub więcej
Mało chmury na wysokości 4900 ft
Zachmurzenie całkowite na wysokości 7000 ft

METAR: LFAQ 042130Z AUTO 26005KT 9999 FEW049 OVC070 11/08 Q1001

czas: 23:47 (21:47 UTC)

Prognoza

Raport powstał 7 godziny i 47 minut temu, godzina 14:00 UTC
Prognoza ważna od 04 godzina 15 UTC do 04 godzina 24 UTC
Wiatr 12 kt od północ
Widzialność 10 km lub więcej
Przerywane chmury na wysokości 3000 ft
Przejściowo
od 04 godzina 15 UTC do 04 godzina 18 UTC
Przerywane chmury na wysokości 1400 ft
deszcz
Stopniowe zmiany
od 04 godzina 19 UTC do 04 godzina 21 UTC
Wiatr 8 kt od zachód

TAF: LFAQ 041400Z 0415/0424 35012KT 9999 BKN030 TEMPO 0415/0418 RA BKN014 BECMG 0419/0421 27008KT

Obserwacja i prognoza pogody dla ponad 4000 lotnisk (raport METAR i TAF).

Dostępne stacje oznaczono żółtymi i czerwonymi punktami na mapie.

Najedź kursorem aby zobaczyć nazwę stacji.

Kliknij aby zobaczyć obserwacje i prognozy pogody.

Aby zmienić mapę: kliknij na zielony przycisk z czarnym krzyżykiem, aby powiększyć; na zielony przycisk z myślnikiem, aby pomniejszyć; na zielone strzałki, aby przejść do map sąsiednich.


METAR-TAF: